sensor_id;sensor_type;location;lat;lon;timestamp;temperature;humidity
55135;DHT22;41031;44.750;11.308;2022-11-20T00:01:13;11.20;96.80
55135;DHT22;41031;44.750;11.308;2022-11-20T00:03:40;11.10;96.50
55135;DHT22;41031;44.750;11.308;2022-11-20T00:06:11;11.10;96.70
55135;DHT22;41031;44.750;11.308;2022-11-20T00:08:39;11.00;96.30
55135;DHT22;41031;44.750;11.308;2022-11-20T00:11:12;11.00;96.30
55135;DHT22;41031;44.750;11.308;2022-11-20T00:13:45;10.90;96.20
55135;DHT22;41031;44.750;11.308;2022-11-20T00:16:16;10.90;96.10
55135;DHT22;41031;44.750;11.308;2022-11-20T00:18:43;10.90;95.90
55135;DHT22;41031;44.750;11.308;2022-11-20T00:21:16;10.80;95.70
55135;DHT22;41031;44.750;11.308;2022-11-20T00:23:44;10.80;95.70
55135;DHT22;41031;44.750;11.308;2022-11-20T00:26:16;10.80;95.60
55135;DHT22;41031;44.750;11.308;2022-11-20T00:28:48;10.80;95.60
55135;DHT22;41031;44.750;11.308;2022-11-20T00:31:16;10.70;95.60
55135;DHT22;41031;44.750;11.308;2022-11-20T00:33:44;10.70;95.60
55135;DHT22;41031;44.750;11.308;2022-11-20T00:36:14;10.70;95.60
55135;DHT22;41031;44.750;11.308;2022-11-20T00:38:41;10.70;95.60
55135;DHT22;41031;44.750;11.308;2022-11-20T00:41:10;10.60;95.60
55135;DHT22;41031;44.750;11.308;2022-11-20T00:43:37;10.60;95.60
55135;DHT22;41031;44.750;11.308;2022-11-20T00:46:07;10.50;95.60
55135;DHT22;41031;44.750;11.308;2022-11-20T00:48:35;10.60;95.60
55135;DHT22;41031;44.750;11.308;2022-11-20T00:51:02;10.50;95.40
55135;DHT22;41031;44.750;11.308;2022-11-20T00:53:29;10.50;95.30
55135;DHT22;41031;44.750;11.308;2022-11-20T00:56:01;10.50;95.20
55135;DHT22;41031;44.750;11.308;2022-11-20T00:58:33;10.50;95.20
55135;DHT22;41031;44.750;11.308;2022-11-20T01:01:05;10.50;95.20
55135;DHT22;41031;44.750;11.308;2022-11-20T01:03:38;10.50;95.30
55135;DHT22;41031;44.750;11.308;2022-11-20T01:06:11;10.50;95.30
55135;DHT22;41031;44.750;11.308;2022-11-20T01:08:39;10.50;95.30
55135;DHT22;41031;44.750;11.308;2022-11-20T01:11:09;10.40;95.30
55135;DHT22;41031;44.750;11.308;2022-11-20T01:13:37;10.40;95.40
55135;DHT22;41031;44.750;11.308;2022-11-20T01:16:07;10.30;95.40
55135;DHT22;41031;44.750;11.308;2022-11-20T01:18:36;10.30;95.40
55135;DHT22;41031;44.750;11.308;2022-11-20T01:21:05;10.30;95.50
55135;DHT22;41031;44.750;11.308;2022-11-20T01:23:34;10.30;95.50
55135;DHT22;41031;44.750;11.308;2022-11-20T01:26:03;10.30;95.60
55135;DHT22;41031;44.750;11.308;2022-11-20T01:28:31;10.20;95.70
55135;DHT22;41031;44.750;11.308;2022-11-20T01:30:58;10.20;95.80
55135;DHT22;41031;44.750;11.308;2022-11-20T01:33:26;10.20;95.90
55135;DHT22;41031;44.750;11.308;2022-11-20T01:36:02;10.10;95.90
55135;DHT22;41031;44.750;11.308;2022-11-20T01:38:29;10.20;96.00
55135;DHT22;41031;44.750;11.308;2022-11-20T01:40:56;10.10;96.00
55135;DHT22;41031;44.750;11.308;2022-11-20T01:43:24;10.10;96.00
55135;DHT22;41031;44.750;11.308;2022-11-20T01:46:16;10.10;96.10
55135;DHT22;41031;44.750;11.308;2022-11-20T01:51:33;10.10;96.10
55135;DHT22;41031;44.750;11.308;2022-11-20T01:54:05;10.00;96.10
55135;DHT22;41031;44.750;11.308;2022-11-20T01:56:36;10.00;96.10
55135;DHT22;41031;44.750;11.308;2022-11-20T01:59:07;10.00;96.10
55135;DHT22;41031;44.750;11.308;2022-11-20T02:01:35;10.00;96.20
55135;DHT22;41031;44.750;11.308;2022-11-20T02:04:02;9.90;96.20
55135;DHT22;41031;44.750;11.308;2022-11-20T02:06:35;9.90;96.20
55135;DHT22;41031;44.750;11.308;2022-11-20T02:09:03;9.90;96.20
55135;DHT22;41031;44.750;11.308;2022-11-20T02:11:31;9.90;96.20
55135;DHT22;41031;44.750;11.308;2022-11-20T02:13:58;9.90;96.20
55135;DHT22;41031;44.750;11.308;2022-11-20T02:16:34;9.80;96.20
55135;DHT22;41031;44.750;11.308;2022-11-20T02:19:07;9.90;96.30
55135;DHT22;41031;44.750;11.308;2022-11-20T02:24:22;9.80;96.20
55135;DHT22;41031;44.750;11.308;2022-11-20T02:29:34;9.80;96.20
55135;DHT22;41031;44.750;11.308;2022-11-20T02:32:02;9.80;96.20
55135;DHT22;41031;44.750;11.308;2022-11-20T02:34:30;9.80;96.20
55135;DHT22;41031;44.750;11.308;2022-11-20T02:36:57;9.80;96.30
55135;DHT22;41031;44.750;11.308;2022-11-20T02:39:27;9.80;96.30
55135;DHT22;41031;44.750;11.308;2022-11-20T02:41:56;9.80;96.30
55135;DHT22;41031;44.750;11.308;2022-11-20T02:44:23;9.80;96.30
55135;DHT22;41031;44.750;11.308;2022-11-20T02:46:50;9.80;96.40
55135;DHT22;41031;44.750;11.308;2022-11-20T02:49:17;9.80;96.40
55135;DHT22;41031;44.750;11.308;2022-11-20T02:51:44;9.80;96.40
55135;DHT22;41031;44.750;11.308;2022-11-20T02:54:11;9.80;96.30
55135;DHT22;41031;44.750;11.308;2022-11-20T02:56:39;9.80;96.30
55135;DHT22;41031;44.750;11.308;2022-11-20T02:59:06;9.80;96.30
55135;DHT22;41031;44.750;11.308;2022-11-20T03:01:33;9.80;96.30
55135;DHT22;41031;44.750;11.308;2022-11-20T03:04:01;9.80;96.20
55135;DHT22;41031;44.750;11.308;2022-11-20T03:06:28;9.80;96.20
55135;DHT22;41031;44.750;11.308;2022-11-20T03:08:55;9.80;96.20
55135;DHT22;41031;44.750;11.308;2022-11-20T03:11:22;9.70;96.20
55135;DHT22;41031;44.750;11.308;2022-11-20T03:13:49;9.70;96.20
55135;DHT22;41031;44.750;11.308;2022-11-20T03:16:19;9.70;96.20
55135;DHT22;41031;44.750;11.308;2022-11-20T03:18:47;9.70;96.20
55135;DHT22;41031;44.750;11.308;2022-11-20T03:21:15;9.70;96.20
55135;DHT22;41031;44.750;11.308;2022-11-20T03:23:42;9.70;96.20
55135;DHT22;41031;44.750;11.308;2022-11-20T03:28:39;9.70;96.20
55135;DHT22;41031;44.750;11.308;2022-11-20T03:31:08;9.70;96.20
55135;DHT22;41031;44.750;11.308;2022-11-20T03:33:36;9.70;96.10
55135;DHT22;41031;44.750;11.308;2022-11-20T03:36:05;9.70;96.10
55135;DHT22;41031;44.750;11.308;2022-11-20T03:38:32;9.70;96.10
55135;DHT22;41031;44.750;11.308;2022-11-20T03:41:22;9.60;96.10
55135;DHT22;41031;44.750;11.308;2022-11-20T03:43:53;9.60;96.20
55135;DHT22;41031;44.750;11.308;2022-11-20T03:46:20;9.60;96.20
55135;DHT22;41031;44.750;11.308;2022-11-20T03:48:48;9.60;96.40
55135;DHT22;41031;44.750;11.308;2022-11-20T03:51:19;9.50;96.10
55135;DHT22;41031;44.750;11.308;2022-11-20T03:53:47;9.60;96.10
55135;DHT22;41031;44.750;11.308;2022-11-20T03:56:16;9.50;96.10
55135;DHT22;41031;44.750;11.308;2022-11-20T03:58:43;9.50;96.10
55135;DHT22;41031;44.750;11.308;2022-11-20T04:01:17;9.50;96.10
55135;DHT22;41031;44.750;11.308;2022-11-20T04:03:44;9.50;96.10
55135;DHT22;41031;44.750;11.308;2022-11-20T04:06:22;9.40;96.10
55135;DHT22;41031;44.750;11.308;2022-11-20T04:08:50;9.50;96.10
55135;DHT22;41031;44.750;11.308;2022-11-20T04:11:24;9.40;96.00
55135;DHT22;41031;44.750;11.308;2022-11-20T04:13:53;9.40;96.10
55135;DHT22;41031;44.750;11.308;2022-11-20T04:16:22;9.40;96.10
55135;DHT22;41031;44.750;11.308;2022-11-20T04:18:54;9.40;96.00
55135;DHT22;41031;44.750;11.308;2022-11-20T04:21:22;9.40;95.70
55135;DHT22;41031;44.750;11.308;2022-11-20T04:23:51;9.40;95.60
55135;DHT22;41031;44.750;11.308;2022-11-20T04:26:20;9.30;95.60
55135;DHT22;41031;44.750;11.308;2022-11-20T04:28:47;9.30;95.60
55135;DHT22;41031;44.750;11.308;2022-11-20T04:31:17;9.20;95.70
55135;DHT22;41031;44.750;11.308;2022-11-20T04:33:44;9.20;95.80
55135;DHT22;41031;44.750;11.308;2022-11-20T04:36:20;9.20;95.90
55135;DHT22;41031;44.750;11.308;2022-11-20T04:38:51;9.20;96.00
55135;DHT22;41031;44.750;11.308;2022-11-20T04:41:25;9.10;96.00
55135;DHT22;41031;44.750;11.308;2022-11-20T04:43:55;9.10;96.00
55135;DHT22;41031;44.750;11.308;2022-11-20T04:46:27;9.10;96.00
55135;DHT22;41031;44.750;11.308;2022-11-20T04:48:55;9.10;96.10
55135;DHT22;41031;44.750;11.308;2022-11-20T04:51:22;9.10;96.00
55135;DHT22;41031;44.750;11.308;2022-11-20T04:53:49;9.10;96.10
55135;DHT22;41031;44.750;11.308;2022-11-20T04:56:16;9.00;96.00
55135;DHT22;41031;44.750;11.308;2022-11-20T04:58:43;9.10;96.10
55135;DHT22;41031;44.750;11.308;2022-11-20T05:01:13;9.00;96.00
55135;DHT22;41031;44.750;11.308;2022-11-20T05:03:42;9.00;96.00
55135;DHT22;41031;44.750;11.308;2022-11-20T05:06:11;9.00;96.00
55135;DHT22;41031;44.750;11.308;2022-11-20T05:08:39;9.00;96.00
55135;DHT22;41031;44.750;11.308;2022-11-20T05:11:14;8.90;95.90
55135;DHT22;41031;44.750;11.308;2022-11-20T05:13:41;8.90;95.90
55135;DHT22;41031;44.750;11.308;2022-11-20T05:16:15;8.90;95.90
55135;DHT22;41031;44.750;11.308;2022-11-20T05:18:43;8.80;95.80
55135;DHT22;41031;44.750;11.308;2022-11-20T05:21:10;8.80;95.80
55135;DHT22;41031;44.750;11.308;2022-11-20T05:23:38;8.80;95.90
55135;DHT22;41031;44.750;11.308;2022-11-20T05:26:07;8.80;95.80
55135;DHT22;41031;44.750;11.308;2022-11-20T05:28:34;8.80;95.80
55135;DHT22;41031;44.750;11.308;2022-11-20T05:31:09;8.70;95.80
55135;DHT22;41031;44.750;11.308;2022-11-20T05:33:40;8.70;95.90
55135;DHT22;41031;44.750;11.308;2022-11-20T05:36:08;8.60;96.00
55135;DHT22;41031;44.750;11.308;2022-11-20T05:38:35;8.60;96.20
55135;DHT22;41031;44.750;11.308;2022-11-20T05:41:07;8.60;96.30
55135;DHT22;41031;44.750;11.308;2022-11-20T05:43:36;8.60;96.40
55135;DHT22;41031;44.750;11.308;2022-11-20T05:46:04;8.60;96.40
55135;DHT22;41031;44.750;11.308;2022-11-20T05:48:33;8.60;96.40
55135;DHT22;41031;44.750;11.308;2022-11-20T05:51:02;8.60;96.40
55135;DHT22;41031;44.750;11.308;2022-11-20T05:53:29;8.60;96.40
55135;DHT22;41031;44.750;11.308;2022-11-20T05:58:24;8.60;96.40
55135;DHT22;41031;44.750;11.308;2022-11-20T06:00:51;8.60;96.40
55135;DHT22;41031;44.750;11.308;2022-11-20T06:03:19;8.60;96.40
55135;DHT22;41031;44.750;11.308;2022-11-20T06:05:46;8.70;96.50
55135;DHT22;41031;44.750;11.308;2022-11-20T06:08:13;8.70;96.40
55135;DHT22;41031;44.750;11.308;2022-11-20T06:10:40;8.70;96.40
55135;DHT22;41031;44.750;11.308;2022-11-20T06:13:07;8.70;96.40
55135;DHT22;41031;44.750;11.308;2022-11-20T06:15:34;8.70;96.30
55135;DHT22;41031;44.750;11.308;2022-11-20T06:18:01;8.70;96.30
55135;DHT22;41031;44.750;11.308;2022-11-20T06:20:29;8.70;96.20
55135;DHT22;41031;44.750;11.308;2022-11-20T06:22:56;8.60;96.20
55135;DHT22;41031;44.750;11.308;2022-11-20T06:25:23;8.60;96.10
55135;DHT22;41031;44.750;11.308;2022-11-20T06:27:50;8.60;96.10
55135;DHT22;41031;44.750;11.308;2022-11-20T06:30:17;8.50;96.10
55135;DHT22;41031;44.750;11.308;2022-11-20T06:32:44;8.50;96.10
55135;DHT22;41031;44.750;11.308;2022-11-20T06:35:12;8.50;96.10
55135;DHT22;41031;44.750;11.308;2022-11-20T06:37:39;8.50;96.10
55135;DHT22;41031;44.750;11.308;2022-11-20T06:40:06;8.50;96.20
55135;DHT22;41031;44.750;11.308;2022-11-20T06:42:34;8.50;96.20
55135;DHT22;41031;44.750;11.308;2022-11-20T06:45:01;8.40;96.20
55135;DHT22;41031;44.750;11.308;2022-11-20T06:47:28;8.50;96.30
55135;DHT22;41031;44.750;11.308;2022-11-20T06:49:55;8.50;96.30
55135;DHT22;41031;44.750;11.308;2022-11-20T06:52:22;8.50;96.20
55135;DHT22;41031;44.750;11.308;2022-11-20T06:54:49;8.50;96.10
55135;DHT22;41031;44.750;11.308;2022-11-20T06:57:16;8.40;96.00
55135;DHT22;41031;44.750;11.308;2022-11-20T06:59:43;8.40;96.10
55135;DHT22;41031;44.750;11.308;2022-11-20T07:02:12;8.40;96.10
55135;DHT22;41031;44.750;11.308;2022-11-20T07:04:40;8.40;96.10
55135;DHT22;41031;44.750;11.308;2022-11-20T07:07:07;8.40;96.30
55135;DHT22;41031;44.750;11.308;2022-11-20T07:09:35;8.50;96.00
55135;DHT22;41031;44.750;11.308;2022-11-20T07:12:02;8.50;96.00
55135;DHT22;41031;44.750;11.308;2022-11-20T07:14:29;8.60;96.10
55135;DHT22;41031;44.750;11.308;2022-11-20T07:16:56;8.60;96.10
55135;DHT22;41031;44.750;11.308;2022-11-20T07:19:23;8.70;96.10
55135;DHT22;41031;44.750;11.308;2022-11-20T07:21:50;8.70;96.10
55135;DHT22;41031;44.750;11.308;2022-11-20T07:24:17;8.80;96.10
55135;DHT22;41031;44.750;11.308;2022-11-20T07:26:48;8.80;96.00
55135;DHT22;41031;44.750;11.308;2022-11-20T07:29:16;8.90;95.90
55135;DHT22;41031;44.750;11.308;2022-11-20T07:31:43;8.90;96.20
55135;DHT22;41031;44.750;11.308;2022-11-20T07:34:10;9.00;95.90
55135;DHT22;41031;44.750;11.308;2022-11-20T07:36:37;9.10;95.90
55135;DHT22;41031;44.750;11.308;2022-11-20T07:39:05;9.10;95.90
55135;DHT22;41031;44.750;11.308;2022-11-20T07:41:32;9.20;95.90
55135;DHT22;41031;44.750;11.308;2022-11-20T07:43:59;9.30;95.80
55135;DHT22;41031;44.750;11.308;2022-11-20T07:46:26;9.40;95.80
55135;DHT22;41031;44.750;11.308;2022-11-20T07:48:53;9.50;95.80
55135;DHT22;41031;44.750;11.308;2022-11-20T07:51:21;9.60;95.90
55135;DHT22;41031;44.750;11.308;2022-11-20T07:53:51;9.70;95.70
55135;DHT22;41031;44.750;11.308;2022-11-20T07:56:18;9.80;95.60
55135;DHT22;41031;44.750;11.308;2022-11-20T07:58:45;9.90;95.50
55135;DHT22;41031;44.750;11.308;2022-11-20T08:01:12;10.00;95.50
55135;DHT22;41031;44.750;11.308;2022-11-20T08:03:39;10.00;95.40
55135;DHT22;41031;44.750;11.308;2022-11-20T08:06:06;10.10;95.30
55135;DHT22;41031;44.750;11.308;2022-11-20T08:08:34;10.20;95.20
55135;DHT22;41031;44.750;11.308;2022-11-20T08:11:08;10.30;95.20
55135;DHT22;41031;44.750;11.308;2022-11-20T08:13:53;10.40;95.10
55135;DHT22;41031;44.750;11.308;2022-11-20T08:16:43;10.50;95.00
55135;DHT22;41031;44.750;11.308;2022-11-20T08:19:12;10.60;94.80
55135;DHT22;41031;44.750;11.308;2022-11-20T08:21:39;10.70;94.70
55135;DHT22;41031;44.750;11.308;2022-11-20T08:24:08;10.80;94.70
55135;DHT22;41031;44.750;11.308;2022-11-20T08:26:37;10.80;94.60
55135;DHT22;41031;44.750;11.308;2022-11-20T08:29:05;10.90;94.50
55135;DHT22;41031;44.750;11.308;2022-11-20T08:31:32;11.00;94.40
55135;DHT22;41031;44.750;11.308;2022-11-20T08:33:59;11.10;94.30
55135;DHT22;41031;44.750;11.308;2022-11-20T08:36:27;11.20;94.20
55135;DHT22;41031;44.750;11.308;2022-11-20T08:38:55;11.30;94.10
55135;DHT22;41031;44.750;11.308;2022-11-20T08:41:22;11.40;94.00
55135;DHT22;41031;44.750;11.308;2022-11-20T08:43:58;11.40;93.90
55135;DHT22;41031;44.750;11.308;2022-11-20T08:46:27;11.50;93.80
55135;DHT22;41031;44.750;11.308;2022-11-20T08:48:54;11.60;93.70
55135;DHT22;41031;44.750;11.308;2022-11-20T08:51:21;11.70;93.70
55135;DHT22;41031;44.750;11.308;2022-11-20T08:53:48;11.80;93.60
55135;DHT22;41031;44.750;11.308;2022-11-20T08:56:16;11.90;93.50
55135;DHT22;41031;44.750;11.308;2022-11-20T08:58:44;12.00;93.40
55135;DHT22;41031;44.750;11.308;2022-11-20T09:01:31;12.10;93.30
55135;DHT22;41031;44.750;11.308;2022-11-20T09:03:58;12.20;93.20
55135;DHT22;41031;44.750;11.308;2022-11-20T09:06:26;12.30;93.20
55135;DHT22;41031;44.750;11.308;2022-11-20T09:08:54;12.30;93.40
55135;DHT22;41031;44.750;11.308;2022-11-20T09:11:21;12.40;93.00
55135;DHT22;41031;44.750;11.308;2022-11-20T09:13:48;12.50;92.90
55135;DHT22;41031;44.750;11.308;2022-11-20T09:16:15;12.50;92.70
55135;DHT22;41031;44.750;11.308;2022-11-20T09:18:43;12.60;92.60
55135;DHT22;41031;44.750;11.308;2022-11-20T09:21:11;12.70;92.50
55135;DHT22;41031;44.750;11.308;2022-11-20T09:23:39;12.80;92.30
55135;DHT22;41031;44.750;11.308;2022-11-20T09:26:13;12.80;92.10
55135;DHT22;41031;44.750;11.308;2022-11-20T09:28:40;12.90;92.10
55135;DHT22;41031;44.750;11.308;2022-11-20T09:31:09;12.90;92.00
55135;DHT22;41031;44.750;11.308;2022-11-20T09:33:36;13.00;92.00
55135;DHT22;41031;44.750;11.308;2022-11-20T09:36:03;13.10;91.90
55135;DHT22;41031;44.750;11.308;2022-11-20T09:38:30;13.10;92.10
55135;DHT22;41031;44.750;11.308;2022-11-20T09:41:03;13.20;92.10
55135;DHT22;41031;44.750;11.308;2022-11-20T09:46:25;13.40;91.70
55135;DHT22;41031;44.750;11.308;2022-11-20T09:54:31;13.60;91.30
55135;DHT22;41031;44.750;11.308;2022-11-20T09:57:11;13.70;91.20
55135;DHT22;41031;44.750;11.308;2022-11-20T10:00:01;13.80;91.10
55135;DHT22;41031;44.750;11.308;2022-11-20T10:24:44;14.30;89.80
55135;DHT22;41031;44.750;11.308;2022-11-20T10:27:52;14.30;89.50
55135;DHT22;41031;44.750;11.308;2022-11-20T10:30:23;14.40;89.50
55135;DHT22;41031;44.750;11.308;2022-11-20T10:32:55;14.40;89.50
55135;DHT22;41031;44.750;11.308;2022-11-20T10:35:36;14.50;89.30
55135;DHT22;41031;44.750;11.308;2022-11-20T10:38:16;14.50;89.00
55135;DHT22;41031;44.750;11.308;2022-11-20T10:40:51;14.60;86.60
55135;DHT22;41031;44.750;11.308;2022-11-20T10:43:32;14.50;86.60
55135;DHT22;41031;44.750;11.308;2022-11-20T10:46:10;14.60;86.70
55135;DHT22;41031;44.750;11.308;2022-11-20T10:48:43;14.60;87.20
55135;DHT22;41031;44.750;11.308;2022-11-20T10:54:10;14.80;87.40
55135;DHT22;41031;44.750;11.308;2022-11-20T10:56:47;14.80;87.50
55135;DHT22;41031;44.750;11.308;2022-11-20T11:01:47;15.00;85.90
55135;DHT22;41031;44.750;11.308;2022-11-20T11:04:35;15.10;85.60
55135;DHT22;41031;44.750;11.308;2022-11-20T11:09:52;15.10;84.20
55135;DHT22;41031;44.750;11.308;2022-11-20T11:12:21;15.10;84.00
55135;DHT22;41031;44.750;11.308;2022-11-20T11:14:50;15.10;84.20
55135;DHT22;41031;44.750;11.308;2022-11-20T11:20:14;15.20;84.30
55135;DHT22;41031;44.750;11.308;2022-11-20T11:22:51;15.30;83.80
55135;DHT22;41031;44.750;11.308;2022-11-20T11:25:33;15.40;83.70
55135;DHT22;41031;44.750;11.308;2022-11-20T11:30:43;15.50;81.90
55135;DHT22;41031;44.750;11.308;2022-11-20T11:33:32;15.60;82.00
55135;DHT22;41031;44.750;11.308;2022-11-20T11:36:21;15.70;82.20
55135;DHT22;41031;44.750;11.308;2022-11-20T11:38:51;15.80;82.20
55135;DHT22;41031;44.750;11.308;2022-11-20T11:41:27;15.80;80.60
55135;DHT22;41031;44.750;11.308;2022-11-20T11:43:58;15.80;80.60
55135;DHT22;41031;44.750;11.308;2022-11-20T11:46:55;15.90;80.70
55135;DHT22;41031;44.750;11.308;2022-11-20T11:49:23;16.00;80.90
55135;DHT22;41031;44.750;11.308;2022-11-20T11:54:53;16.10;80.50
55135;DHT22;41031;44.750;11.308;2022-11-20T11:57:28;16.20;79.80
55135;DHT22;41031;44.750;11.308;2022-11-20T12:00:12;16.20;78.20
55135;DHT22;41031;44.750;11.308;2022-11-20T12:03:42;16.20;77.50
55135;DHT22;41031;44.750;11.308;2022-11-20T12:05:56;16.10;76.90
55135;DHT22;41031;44.750;11.308;2022-11-20T12:11:06;16.10;77.60
55135;DHT22;41031;44.750;11.308;2022-11-20T12:16:04;16.20;77.80
55135;DHT22;41031;44.750;11.308;2022-11-20T12:18:32;16.30;77.60
55135;DHT22;41031;44.750;11.308;2022-11-20T12:27:09;16.40;77.00
55135;DHT22;41031;44.750;11.308;2022-11-20T12:30:02;16.50;76.90
55135;DHT22;41031;44.750;11.308;2022-11-20T12:32:46;16.50;76.20
55135;DHT22;41031;44.750;11.308;2022-11-20T12:35:44;16.50;76.30
55135;DHT22;41031;44.750;11.308;2022-11-20T12:47:33;16.40;73.90
55135;DHT22;41031;44.750;11.308;2022-11-20T12:50:11;16.30;73.80
55135;DHT22;41031;44.750;11.308;2022-11-20T12:52:56;16.20;73.90
55135;DHT22;41031;44.750;11.308;2022-11-20T13:01:24;16.10;73.40
55135;DHT22;41031;44.750;11.308;2022-11-20T13:07:14;15.90;74.00
55135;DHT22;41031;44.750;11.308;2022-11-20T13:09:46;15.90;74.20
55135;DHT22;41031;44.750;11.308;2022-11-20T13:12:30;15.80;74.10
55135;DHT22;41031;44.750;11.308;2022-11-20T13:15:17;15.90;74.40
55135;DHT22;41031;44.750;11.308;2022-11-20T13:17:54;15.90;74.60
55135;DHT22;41031;44.750;11.308;2022-11-20T13:20:22;15.90;74.60
55135;DHT22;41031;44.750;11.308;2022-11-20T13:22:54;15.90;74.50
55135;DHT22;41031;44.750;11.308;2022-11-20T13:25:33;15.90;74.30
55135;DHT22;41031;44.750;11.308;2022-11-20T13:30:49;15.90;73.30
55135;DHT22;41031;44.750;11.308;2022-11-20T13:33:37;15.90;73.00
55135;DHT22;41031;44.750;11.308;2022-11-20T13:36:07;15.80;72.60
55135;DHT22;41031;44.750;11.308;2022-11-20T13:38:48;15.80;72.60
55135;DHT22;41031;44.750;11.308;2022-11-20T13:41:33;15.70;72.50
55135;DHT22;41031;44.750;11.308;2022-11-20T13:44:21;15.70;72.90
55135;DHT22;41031;44.750;11.308;2022-11-20T13:46:51;15.60;73.00
55135;DHT22;41031;44.750;11.308;2022-11-20T13:49:27;15.60;73.10
55135;DHT22;41031;44.750;11.308;2022-11-20T14:00:20;15.40;72.70
55135;DHT22;41031;44.750;11.308;2022-11-20T14:03:09;15.40;73.60
55135;DHT22;41031;44.750;11.308;2022-11-20T14:05:45;15.40;73.50
55135;DHT22;41031;44.750;11.308;2022-11-20T14:08:25;15.30;73.80
55135;DHT22;41031;44.750;11.308;2022-11-20T14:11:13;15.20;74.10
55135;DHT22;41031;44.750;11.308;2022-11-20T14:13:58;15.20;74.10
55135;DHT22;41031;44.750;11.308;2022-11-20T14:16:28;15.20;74.90
55135;DHT22;41031;44.750;11.308;2022-11-20T14:18:57;15.10;74.40
55135;DHT22;41031;44.750;11.308;2022-11-20T14:21:29;15.10;74.80
55135;DHT22;41031;44.750;11.308;2022-11-20T14:24:06;15.10;75.20
55135;DHT22;41031;44.750;11.308;2022-11-20T14:26:33;15.00;75.20
55135;DHT22;41031;44.750;11.308;2022-11-20T14:29:02;15.00;75.20
55135;DHT22;41031;44.750;11.308;2022-11-20T14:31:29;15.00;75.50
55135;DHT22;41031;44.750;11.308;2022-11-20T14:33:57;14.90;75.80
55135;DHT22;41031;44.750;11.308;2022-11-20T14:36:25;14.80;76.00
55135;DHT22;41031;44.750;11.308;2022-11-20T14:38:52;14.80;76.00
55135;DHT22;41031;44.750;11.308;2022-11-20T14:41:24;14.80;76.00
55135;DHT22;41031;44.750;11.308;2022-11-20T14:43:56;14.70;76.00
55135;DHT22;41031;44.750;11.308;2022-11-20T14:46:23;14.70;76.10
55135;DHT22;41031;44.750;11.308;2022-11-20T14:48:55;14.70;76.40
55135;DHT22;41031;44.750;11.308;2022-11-20T14:51:34;14.60;76.60
55135;DHT22;41031;44.750;11.308;2022-11-20T14:56:37;14.40;77.20
55135;DHT22;41031;44.750;11.308;2022-11-20T14:59:04;14.40;77.50
55135;DHT22;41031;44.750;11.308;2022-11-20T15:01:32;14.30;77.80
55135;DHT22;41031;44.750;11.308;2022-11-20T15:06:28;14.20;78.40
55135;DHT22;41031;44.750;11.308;2022-11-20T15:08:56;14.10;78.70
55135;DHT22;41031;44.750;11.308;2022-11-20T15:11:28;14.10;79.00
55135;DHT22;41031;44.750;11.308;2022-11-20T15:13:57;14.00;79.20
55135;DHT22;41031;44.750;11.308;2022-11-20T15:16:24;13.90;79.40
55135;DHT22;41031;44.750;11.308;2022-11-20T15:18:53;13.80;79.60
55135;DHT22;41031;44.750;11.308;2022-11-20T15:21:21;13.70;79.80
55135;DHT22;41031;44.750;11.308;2022-11-20T15:23:48;13.70;80.10
55135;DHT22;41031;44.750;11.308;2022-11-20T15:26:24;13.60;80.40
55135;DHT22;41031;44.750;11.308;2022-11-20T15:28:53;13.50;80.60
55135;DHT22;41031;44.750;11.308;2022-11-20T15:31:22;13.40;80.90
55135;DHT22;41031;44.750;11.308;2022-11-20T15:33:50;13.30;81.20
55135;DHT22;41031;44.750;11.308;2022-11-20T15:36:17;13.30;81.50
55135;DHT22;41031;44.750;11.308;2022-11-20T15:38:44;13.20;81.70
55135;DHT22;41031;44.750;11.308;2022-11-20T15:41:11;13.10;81.90
55135;DHT22;41031;44.750;11.308;2022-11-20T15:43:38;13.00;82.20
55135;DHT22;41031;44.750;11.308;2022-11-20T15:46:10;12.90;82.40
55135;DHT22;41031;44.750;11.308;2022-11-20T15:48:41;12.80;82.60
55135;DHT22;41031;44.750;11.308;2022-11-20T15:51:22;12.80;82.90
55135;DHT22;41031;44.750;11.308;2022-11-20T15:53:51;12.70;83.20
55135;DHT22;41031;44.750;11.308;2022-11-20T15:56:18;12.60;83.30
55135;DHT22;41031;44.750;11.308;2022-11-20T15:58:45;12.60;83.50
55135;DHT22;41031;44.750;11.308;2022-11-20T16:01:14;12.50;83.60
55135;DHT22;41031;44.750;11.308;2022-11-20T16:03:42;12.50;83.80
55135;DHT22;41031;44.750;11.308;2022-11-20T16:06:09;12.40;84.00
55135;DHT22;41031;44.750;11.308;2022-11-20T16:08:36;12.40;84.30
55135;DHT22;41031;44.750;11.308;2022-11-20T16:11:03;12.30;84.40
55135;DHT22;41031;44.750;11.308;2022-11-20T16:13:31;12.30;84.60
55135;DHT22;41031;44.750;11.308;2022-11-20T16:16:23;12.20;84.70
55135;DHT22;41031;44.750;11.308;2022-11-20T16:18:54;12.20;84.90
55135;DHT22;41031;44.750;11.308;2022-11-20T16:21:22;12.10;85.00
55135;DHT22;41031;44.750;11.308;2022-11-20T16:23:59;12.00;85.20
55135;DHT22;41031;44.750;11.308;2022-11-20T16:26:26;12.00;85.40
55135;DHT22;41031;44.750;11.308;2022-11-20T16:28:54;11.90;85.60
55135;DHT22;41031;44.750;11.308;2022-11-20T16:31:22;11.80;85.90
55135;DHT22;41031;44.750;11.308;2022-11-20T16:33:53;11.80;86.30
55135;DHT22;41031;44.750;11.308;2022-11-20T16:36:22;11.70;86.40
55135;DHT22;41031;44.750;11.308;2022-11-20T16:38:54;11.70;86.60
55135;DHT22;41031;44.750;11.308;2022-11-20T16:41:23;11.70;86.90
55135;DHT22;41031;44.750;11.308;2022-11-20T16:43:52;11.60;87.00
55135;DHT22;41031;44.750;11.308;2022-11-20T16:46:21;11.60;87.20
55135;DHT22;41031;44.750;11.308;2022-11-20T16:48:59;11.50;87.30
55135;DHT22;41031;44.750;11.308;2022-11-20T16:51:28;11.50;87.40
55135;DHT22;41031;44.750;11.308;2022-11-20T16:53:55;11.40;87.60
55135;DHT22;41031;44.750;11.308;2022-11-20T16:56:24;11.40;87.90
55135;DHT22;41031;44.750;11.308;2022-11-20T16:58:54;11.30;88.30
55135;DHT22;41031;44.750;11.308;2022-11-20T17:01:22;11.30;88.50
55135;DHT22;41031;44.750;11.308;2022-11-20T17:03:55;11.30;88.50
55135;DHT22;41031;44.750;11.308;2022-11-20T17:06:25;11.20;88.60
55135;DHT22;41031;44.750;11.308;2022-11-20T17:08:54;11.20;88.80
55135;DHT22;41031;44.750;11.308;2022-11-20T17:11:22;11.10;88.90
55135;DHT22;41031;44.750;11.308;2022-11-20T17:13:49;11.10;89.10
55135;DHT22;41031;44.750;11.308;2022-11-20T17:16:19;11.10;89.30
55135;DHT22;41031;44.750;11.308;2022-11-20T17:18:46;11.00;89.30
55135;DHT22;41031;44.750;11.308;2022-11-20T17:21:17;11.00;89.40
55135;DHT22;41031;44.750;11.308;2022-11-20T17:23:45;11.00;89.50
55135;DHT22;41031;44.750;11.308;2022-11-20T17:26:21;10.90;89.70
55135;DHT22;41031;44.750;11.308;2022-11-20T17:28:59;10.90;90.00
55135;DHT22;41031;44.750;11.308;2022-11-20T17:31:27;10.90;90.00